• Join FlightAware (Why Join?)
  • Login
  • US Flag 
03:24AM EDT


 

Airport Tracker/Info


-or-


 

Live Flight TrackerFlight Track Log ✈ SWA558 ✈ 14-Apr-2013 ✈ KRSW - KMDW

Flight Track Log - Related Links

Times and Time Zones

All times are in EDT time to prevent confusion due to time zone crossing. See the SWA558 flight status page for this flight to view local times or setup timezone preferences in your user account.

Time Position Orientation Groundspeed Altitude Reporting Facility
EDT Latitude Longitude Course Direction KTS MPH feet Rate Location/Type
12:36PM 26.5261 -81.8969 350° North 246 283 4,900  Level Miami Center
12:37PM 26.6067 -81.9142 349° North 246 283 8,100 3,000 Climbing Miami Center
12:38PM 26.6925 -81.9111 North 268 308 10,900 2,580 Climbing Miami Center
12:39PM 26.7914 -81.8850 13° North 303 349 13,300 2,700 Climbing Miami Center
12:40PM 26.8894 -81.8311 26° Northeast 353 406 16,300 3,000 Climbing Miami Center
12:41PM 27.3491 -81.8914 347° North  Level FlightAware Approximate
12:41PM 26.9975 -81.8450 353° North 370 426 19,300  Level Miami Center
12:42PM 27.4615 -81.9190 350° North  Level FlightAware Approximate
12:43PM 27.1203 -81.9000 North  Level FlightAware Approximate
12:43PM 27.2297 -81.8853 North 406 467 23,100  Level Miami Center
12:44PM 27.3361 -81.8900 358° North 417 480 24,200 900 Climbing Miami Center
12:45PM 27.4528 -81.8389 21° North 423 487 25,000 1,020 Climbing Miami Center
12:46PM 27.5839 -81.7814 21° North 451 519 26,300 1,320 Climbing Miami Center
12:47PM 27.7064 -81.7422 16° North 457 526 27,700 1,380 Climbing Miami Center
12:48PM 27.8128 -81.8053 332° Northwest 407 468 29,100 1,440 Climbing Miami Center
12:51PM 28.0611 -81.9753 329° Northwest 434 499 32,700 1,380 Climbing Jacksonville Center
12:52PM 28.1617 -82.0450 329° Northwest 429 494 34,000 600 Climbing Jacksonville Center
12:53PM 28.2622 -82.1150 328° Northwest 429 494 34,000 480 Level Jacksonville Center
12:54PM 28.3650 -82.1825 330° Northwest 429 494 35,000 1,440 Climbing Jacksonville Center
12:55PM 28.4736 -82.2267 340° North 422 486 36,900 1,500 Climbing Jacksonville Center
12:56PM 28.5803 -82.2686 341° North 412 474 38,000 540 Climbing Jacksonville Center
12:57PM 28.6869 -82.3128 340° North 412 474 38,000  Level Jacksonville Center
12:58PM 28.7789 -82.3478 342° North 407 468 38,000  Level Jacksonville Center
12:59PM 28.8856 -82.3897 341° North 402 463 38,000  Level Jacksonville Center
01:00PM 28.9903 -82.4344 340° North 402 463 38,000  Level Jacksonville Center
01:01PM 29.0947 -82.4767 341° North 402 463 38,000  Level Jacksonville Center
01:02PM 29.1992 -82.5192 340° North 402 463 38,000  Level Jacksonville Center
01:03PM 29.3058 -82.5617 341° North 402 463 38,000  Level Jacksonville Center
01:04PM 29.4122 -82.6089 339° North 402 463 38,000  Level Jacksonville Center
01:05PM 29.5314 -82.6586 340° North 418 481 38,000  Level Jacksonville Center
01:06PM 29.6400 -82.7061 339° North 410 472 38,000  Level Jacksonville Center
01:07PM 29.7486 -82.7514 340° North 410 472 38,000  Level Jacksonville Center
01:08PM 29.8572 -82.7944 341° North 410 472 38,000  Level Jacksonville Center
01:09PM 29.9553 -82.8350 340° North 410 472 38,000  Level Jacksonville Center
01:10PM 30.0661 -82.8781 341° North 410 472 38,000  Level Jacksonville Center
01:11PM 30.1747 -82.9239 340° North 410 472 38,000 180 Level Jacksonville Center
01:12PM 30.2875 -82.9694 341° North 415 478 38,400 660 Climbing Jacksonville Center
01:13PM 30.3958 -83.0178 339° North 415 478 39,400 780 Climbing Jacksonville Center
01:14PM 30.5064 -83.0636 340° North 410 472 40,000 300 Climbing Jacksonville Center
01:15PM 30.6172 -83.1025 343° North 410 472 40,000  Level Jacksonville Center
01:16PM 30.7319 -83.1392 345° North 410 472 40,000  Level Jacksonville Center
01:17PM 30.8572 -83.1781 345° North 417 480 40,000  Level Jacksonville Center
01:18PM 30.9739 -83.2147 345° North 417 480 40,000  Level Jacksonville Center
01:19PM 31.0867 -83.2492 345° North 417 480 40,000  Level Jacksonville Center
01:22PM 31.3919 -83.3431 345° North 415 478 40,000  Level Atlanta Center
01:23PM 31.5069 -83.3764 346° North 421 484 40,000  Level Atlanta Center
01:24PM 31.6386 -83.4144 346° North 421 484 40,000  Level Atlanta Center
01:25PM 31.7556 -83.4503 345° North 421 484 40,000  Level Atlanta Center
01:26PM 31.8769 -83.4886 345° North 427 491 40,000  Level Atlanta Center
01:27PM 31.9961 -83.5294 344° North 437 503 40,000  Level Atlanta Center
01:28PM 32.1131 -83.5656 345° North 437 503 40,000  Level Atlanta Center
01:29PM 32.2364 -83.6042 345° North 437 503 40,000  Level Atlanta Center
01:30PM 32.3556 -83.6431 345° North 437 503 40,000  Level Atlanta Center
01:31PM 32.4767 -83.6794 346° North 437 503 40,000  Level Atlanta Center
01:32PM 32.5978 -83.7183 345° North 442 509 40,000  Level Atlanta Center
01:33PM 32.7211 -83.7572 345° North 442 509 40,000  Level Atlanta Center
01:34PM 32.8442 -83.7942 346° North 442 509 40,000  Level Atlanta Center
01:35PM 32.9653 -83.8333 345° North 447 514 40,000  Level Atlanta Center
01:36PM 33.0739 -83.8703 344° North 447 514 40,000  Level Atlanta Center
01:37PM 33.1992 -83.9097 345° North 454 522 40,000  Level Atlanta Center
01:38PM 33.3203 -83.9494 345° North 454 522 40,000  Level Atlanta Center
01:39PM 33.4456 -83.9892 345° North 454 522 40,000  Level Atlanta Center
01:40PM 33.5814 -84.0314 345° North 454 522 40,000  Level Atlanta Center
01:41PM 33.7067 -84.0714 345° North 459 528 40,000  Level Atlanta Center
01:42PM 33.8339 -84.1114 345° North 459 528 40,000  Level Atlanta Center
01:43PM 33.9633 -84.1514 346° North 465 535 40,000  Level Atlanta Center
01:44PM 34.0906 -84.1944 344° North 470 541 40,000  Level Atlanta Center
01:45PM 34.2158 -84.2347 345° North 470 541 40,000  Level Atlanta Center
01:46PM 34.3408 -84.2753 345° North 470 541 40,000  Level Atlanta Center
01:47PM 34.4681 -84.3211 343° North 470 541 40,000  Level Atlanta Center
01:48PM 34.5953 -84.3617 345° North 470 541 40,000  Level Atlanta Center
01:49PM 34.7203 -84.4053 344° North 470 541 40,000  Level Atlanta Center
01:50PM 34.8456 -84.4436 346° North 470 541 40,000  Level Atlanta Center
01:51PM 34.9539 -84.4822 344° North 470 541 40,000  Level Atlanta Center
01:52PM 35.0808 -84.5261 344° North 462 532 40,000  Level Atlanta Center
01:53PM 35.2081 -84.5675 345° North 457 526 40,000  Level Atlanta Center
01:54PM 35.3331 -84.6089 345° North 457 526 40,000  Level Atlanta Center
01:55PM 35.4581 -84.6506 345° North 457 526 40,000  Level Atlanta Center
01:56PM 35.5892 -84.6950 345° North 462 532 40,000  Level Atlanta Center
01:57PM 35.7164 -84.7369 345° North 468 539 40,000  Level Atlanta Center
01:58PM 35.8536 -84.7842 344° North 468 539 40,000  Level Atlanta Center
02:00PM 36.1378 -84.8822 344° North 473 544 40,000  Level Indianapolis Center
02:01PM 36.2653 -84.9158 348° North 470 541 40,000  Level Indianapolis Center
02:02PM 36.3922 -84.9467 349° North 467 537 40,000  Level Indianapolis Center
02:03PM 36.5189 -84.9792 348° North 465 535 40,000  Level Indianapolis Center
02:04PM 36.6456 -85.0114 348° North 466 536 40,000  Level Indianapolis Center
02:05PM 36.7764 -85.0464 348° North 479 551 40,000  Level Indianapolis Center
02:06PM 36.9075 -85.0789 349° North 481 554 40,000  Level Indianapolis Center
02:07PM 37.0592 -85.1172 349° North 479 551 40,000  Level Indianapolis Center
02:08PM 37.1897 -85.1519 348° North 478 550 40,000  Level Indianapolis Center
02:09PM 37.3197 -85.1853 348° North 477 549 40,000  Level Indianapolis Center
02:10PM 37.4492 -85.2186 348° North 473 544 40,000  Level Indianapolis Center
02:11PM 37.5769 -85.2522 348° North 470 541 40,000 -600 Level Indianapolis Center
02:12PM 37.7033 -85.2861 348° North 466 536 38,800 -1,620 Descending Indianapolis Center
02:13PM 37.8350 -85.3239 347° North 476 548 36,700 -2,040 Descending Indianapolis Center
02:14PM 37.9742 -85.3569 349° North 499 574 34,700 -1,320 Descending Indianapolis Center
02:15PM 38.1339 -85.3969 349° North 487 560 34,000 -360 Descending Indianapolis Center
02:16PM 38.2653 -85.4331 348° North 482 555 34,000  Level Indianapolis Center
02:17PM 38.3931 -85.4681 348° North 473 544 34,000  Level Indianapolis Center
02:18PM 38.5208 -85.5019 348° North 468 539 34,000 -180 Level Indianapolis Center
02:19PM 38.6467 -85.5361 348° North 465 535 33,700 -1,200 Descending Indianapolis Center
02:20PM 38.7764 -85.5694 349° North 472 543 31,600 -2,520 Descending Indianapolis Center
02:21PM 38.9269 -85.6119 348° North 461 531 28,600 -2,640 Descending Indianapolis Center
02:22PM 39.0506 -85.6453 348° North 455 524 26,200 -1,260 Descending Indianapolis Center
02:23PM 39.1656 -85.6764 348° North 431 496 26,000 -120 Descending Indianapolis Center
02:24PM 39.2800 -85.7081 348° North 422 486 26,000  Level Indianapolis Center
02:25PM 39.3956 -85.7397 348° North 423 487 26,000 -300 Level Indianapolis Center
02:27PM 39.5114 -85.7722 348° North 423 487 25,400 -780 Descending Indianapolis Center
02:28PM 39.6267 -85.8042 348° North 424 488 24,400 -720 Descending Indianapolis Center
02:29PM 39.7428 -85.8367 348° North 410 472 24,000 -240 Descending Indianapolis Center
02:30PM 39.8608 -85.8697 348° North 420 483 24,000  Level Indianapolis Center
02:31PM 40.0003 -85.9086 348° North 432 497 24,000  Level Indianapolis Center
02:32PM 40.1139 -85.9406 348° North 433 498 24,000  Level Indianapolis Center
02:32PM 40.1836 -85.9586 349° North 433 498 24,000 -660 Level Chicago Center
02:33PM 40.3006 -85.9925 348° North 431 496 23,000 -1,020 Descending Chicago Center
02:34PM 40.4158 -86.0247 348° North 424 488 22,000 -1,020 Descending Chicago Center
02:35PM 40.5311 -86.0572 348° North 421 484 21,000 -1,020 Descending Chicago Center
02:36PM 40.6461 -86.0544 North 416 479 20,000 -540 Descending Chicago Center
02:37PM 40.7842 -86.0525 North 412 474 20,000 -60 Level Chicago Center
02:38PM 40.8981 -86.0494 North 410 472 19,900 -1,140 Descending Chicago Center
02:40PM 40.9781 -86.1289 323° Northwest 380 437 17,700 -2,220 Descending Chicago Center
02:41PM 41.0072 -86.2547 287° West 360 414 15,300 -2,340 Descending Chicago Center
02:42PM 41.0356 -86.3781 287° West 352 405 12,900 -1,860 Descending Chicago Center
02:43PM 41.0739 -86.4892 295° West 336 387 11,600 -1,140 Descending Chicago Center
02:44PM 41.1486 -86.6031 311° West 342 394 10,600 -780 Descending Chicago Center
02:45PM 41.2103 -86.6981 311° West 340 391 10,100 -300 Descending Chicago Center
02:46PM 41.2733 -86.7911 312° West 337 388 10,100 -60 Level Chicago Center
02:47PM 41.3358 -86.8836 312° West 338 389 10,000 -360 Descending Chicago Center
02:48PM 41.3900 -86.9672 311° West 311 358 9,400 -1,080 Descending Chicago Center
02:49PM 41.4394 -87.0675 303° West 285 328 7,800 -1,260 Descending Chicago Center
02:50PM 41.4692 -87.1583 294° West 276 318 6,800 -1,020 Descending Chicago Center
02:51PM 41.5000 -87.2333 299° West 264 304 5,900 -1,020 Descending Chicago TRACON
02:52PM 41.5333 -87.3333 294° West 260 299 4,900 -900 Descending Chicago TRACON
02:53PM 41.5500 -87.4167 285° West 258 297 4,000 -480 Descending Chicago TRACON
02:54PM 41.5833 -87.5167 294° West 256 295 4,000 -120 Level Chicago TRACON
02:55PM 41.6167 -87.5833 304° West 258 297 3,800 -360 Descending Chicago TRACON
02:55PM 41.6206 -87.6086 282° West 258 297 3,600 -780 Descending Chicago Center
02:56PM 41.6500 -87.6833 298° West 266 306 3,000 -360 Descending Chicago TRACON
02:57PM 41.6667 -87.7667 285° West 227 261 3,000  Level Chicago TRACON
02:58PM 41.6833 -87.8167 294° West 188 216 3,000 -480 Level Chicago TRACON
02:59PM 41.7333 -87.8167 360° North 170 196 2,100 -900 Descending Chicago TRACON
03:00PM 41.7667 -87.7833 37° Northeast 139 160 1,200 -840 Descending Chicago TRACON
03:02PM 41.7833 -87.7500 45° Northeast  Level FlightAware Approximate